Terminal Aerodrome Forecast
Issued by NWS

Home | Current Version | Previous Version | Graphics & Text | Print | Product List | Glossary On
Versions: 1 2 3 4 5 6 7 8 9 10 11 12 13 14
814
FTUS43 KICT 230531 AAA
TAFHUT
TAF AMD
KHUT 230531Z 2306/2406 32016G23KT P6SM SCT100 BKN250
     FM230900 01015G24KT P6SM VCSH BKN060
     FM231600 01017G25KT P6SM SCT120
     FM240100 34007KT P6SM SCT200=

USA.gov is the U.S. government's official web portal to all federal, state and local government web resources and services.